createdAt,value
2023-04-09T00:03:19.154Z,7.43
2023-04-09T00:07:22.515Z,7.42
2023-04-09T00:11:29.768Z,7.42
2023-04-09T00:15:32.949Z,7.42
2023-04-09T00:19:37.312Z,7.41
2023-04-09T00:23:40.011Z,7.38
2023-04-09T00:27:45.300Z,7.35
2023-04-09T00:31:48.237Z,7.34
2023-04-09T00:35:54.840Z,7.34
2023-04-09T00:39:57.743Z,7.32
2023-04-09T00:44:01.176Z,7.32
2023-04-09T00:48:04.568Z,7.30
2023-04-09T00:52:12.539Z,7.31
2023-04-09T00:56:18.862Z,7.27
2023-04-09T01:00:21.878Z,7.28
2023-04-09T01:04:25.993Z,7.26
2023-04-09T01:08:38.466Z,7.26
2023-04-09T01:12:51.270Z,7.24
2023-04-09T01:17:01.812Z,7.25
2023-04-09T01:21:08.563Z,7.24
2023-04-09T01:25:30.219Z,7.24
2023-04-09T01:29:43.648Z,7.27
2023-04-09T01:33:47.306Z,7.26
2023-04-09T01:37:51.239Z,7.27
2023-04-09T01:41:58.195Z,7.27
2023-04-09T01:46:03.797Z,7.26
2023-04-09T01:50:07.966Z,7.25
2023-04-09T01:54:11.330Z,7.23
2023-04-09T01:58:14.984Z,7.23
2023-04-09T02:02:24.358Z,7.21
2023-04-09T02:06:36.548Z,7.22
2023-04-09T02:10:42.187Z,7.21
2023-04-09T02:14:48.104Z,7.21
2023-04-09T02:18:57.391Z,7.19
2023-04-09T02:23:00.671Z,7.19
2023-04-09T02:27:04.246Z,7.16
2023-04-09T02:31:07.362Z,7.18
2023-04-09T02:35:11.745Z,7.16
2023-04-09T02:39:14.930Z,7.12
2023-04-09T02:43:18.433Z,7.06
2023-04-09T02:47:26.966Z,7.01
2023-04-09T02:51:31.770Z,6.99
2023-04-09T02:55:34.714Z,6.97
2023-04-09T02:59:39.475Z,6.98
2023-04-09T03:03:43.272Z,6.99
2023-04-09T03:07:48.385Z,6.97
2023-04-09T03:11:51.608Z,6.95
2023-04-09T03:15:55.045Z,6.94
2023-04-09T03:19:58.425Z,6.93
2023-04-09T03:24:04.239Z,6.91
2023-04-09T03:28:07.298Z,6.92
2023-04-09T03:32:10.399Z,6.90
2023-04-09T03:36:13.486Z,6.85
2023-04-09T03:40:18.021Z,6.83
2023-04-09T03:44:21.051Z,6.79
2023-04-09T03:48:23.870Z,6.78
2023-04-09T03:52:26.727Z,6.75
2023-04-09T03:56:31.430Z,6.72
2023-04-09T04:00:34.440Z,6.69
2023-04-09T04:04:37.338Z,6.66
2023-04-09T04:08:40.308Z,6.66
2023-04-09T04:12:44.673Z,6.67
2023-04-09T04:16:47.685Z,6.68
2023-04-09T04:20:51.220Z,6.75
2023-04-09T04:24:54.398Z,6.85
2023-04-09T04:29:01.224Z,7.01
2023-04-09T04:33:04.373Z,7.19
2023-04-09T04:37:07.208Z,7.31
2023-04-09T04:41:12.085Z,7.38
2023-04-09T04:45:16.837Z,7.44
2023-04-09T04:49:19.807Z,7.52
2023-04-09T04:53:26.613Z,7.57
2023-04-09T04:57:33.098Z,7.63
2023-04-09T05:01:37.537Z,7.70
2023-04-09T05:05:40.865Z,7.78
2023-04-09T05:09:44.596Z,7.87
2023-04-09T05:13:47.721Z,7.94
2023-04-09T05:17:52.146Z,7.97
2023-04-09T05:21:54.995Z,7.99
2023-04-09T05:25:57.942Z,8.05
2023-04-09T05:30:01.189Z,8.14
2023-04-09T05:34:06.494Z,8.27
2023-04-09T05:38:09.499Z,8.35
2023-04-09T05:42:12.503Z,8.42
2023-04-09T05:46:18.588Z,8.54
2023-04-09T05:50:28.260Z,8.68
2023-04-09T05:54:31.570Z,8.82
2023-04-09T05:58:37.578Z,8.86
2023-04-09T06:02:42.902Z,8.97
2023-04-09T06:06:47.293Z,9.12
2023-04-09T06:10:50.249Z,9.35
2023-04-09T06:14:53.405Z,9.55
2023-04-09T06:18:57.205Z,9.61
2023-04-09T06:23:01.398Z,9.67
2023-04-09T06:27:04.627Z,9.69
2023-04-09T06:31:08.865Z,9.87
2023-04-09T06:35:11.954Z,10.03
2023-04-09T06:39:16.545Z,10.16
2023-04-09T06:43:24.376Z,10.35
2023-04-09T06:47:27.294Z,10.60
2023-04-09T06:51:32.195Z,10.90
2023-04-09T06:55:36.184Z,11.15
2023-04-09T06:59:39.005Z,11.41
2023-04-09T07:03:41.872Z,11.63
2023-04-09T07:07:45.342Z,12.05
2023-04-09T07:11:49.863Z,12.45
2023-04-09T07:16:00.936Z,13.01
2023-04-09T07:20:04.264Z,13.33
2023-04-09T07:24:08.005Z,13.71
2023-04-09T07:28:12.770Z,13.92
2023-04-09T07:32:16.138Z,14.71
2023-04-09T07:36:21.560Z,15.57
2023-04-09T07:40:24.328Z,16.20
2023-04-09T07:44:28.441Z,15.87
2023-04-09T07:48:32.000Z,15.49
2023-04-09T07:52:34.736Z,15.12
2023-04-09T07:56:37.238Z,14.63
2023-04-09T08:00:41.628Z,14.46
2023-04-09T08:04:45.964Z,14.36
2023-04-09T08:08:52.517Z,14.22
2023-04-09T08:12:55.923Z,14.17
2023-04-09T08:17:01.689Z,14.29
2023-04-09T08:21:06.763Z,14.53
2023-04-09T08:25:10.270Z,14.84
2023-04-09T08:29:14.633Z,15.36
2023-04-09T08:33:18.236Z,15.72
2023-04-09T08:37:21.422Z,15.90
2023-04-09T08:41:25.870Z,16.51
2023-04-09T08:45:29.224Z,16.58
2023-04-09T08:49:35.743Z,16.36
2023-04-09T08:53:40.166Z,16.20
2023-04-09T08:57:43.835Z,16.17
2023-04-09T09:01:48.179Z,15.64
2023-04-09T09:05:52.850Z,15.46
2023-04-09T09:09:58.226Z,15.27
2023-04-09T09:14:06.259Z,15.38
2023-04-09T09:18:09.385Z,15.47
2023-04-09T09:22:16.393Z,15.48
2023-04-09T09:26:23.216Z,15.12
2023-04-09T09:30:27.605Z,15.18
2023-04-09T09:34:30.640Z,16.68
2023-04-09T09:38:34.691Z,16.35
2023-04-09T09:42:37.807Z,15.70
2023-04-09T09:46:42.741Z,15.33
2023-04-09T09:50:49.136Z,15.17
2023-04-09T09:54:54.162Z,14.87
2023-04-09T09:59:05.232Z,14.68
2023-04-09T10:03:16.871Z,14.60
2023-04-09T10:07:22.484Z,14.59
2023-04-09T10:11:27.586Z,14.71
2023-04-09T10:15:31.313Z,14.96
2023-04-09T10:19:44.668Z,15.15
2023-04-09T10:23:51.010Z,15.22
2023-04-09T10:28:02.945Z,15.23
2023-04-09T10:32:07.267Z,15.29
2023-04-09T10:36:12.509Z,15.16
2023-04-09T10:40:20.741Z,15.41
2023-04-09T10:44:28.849Z,15.89
2023-04-09T10:48:34.611Z,16.21
2023-04-09T10:52:42.110Z,17.40
2023-04-09T10:57:13.874Z,17.50
2023-04-09T11:01:24.410Z,17.74
2023-04-09T11:05:32.747Z,18.45
2023-04-09T11:09:36.661Z,17.84
2023-04-09T11:13:42.226Z,17.34
2023-04-09T11:17:47.197Z,17.31
2023-04-09T11:21:51.626Z,17.77
2023-04-09T11:25:55.426Z,17.69
2023-04-09T11:29:58.369Z,17.26
2023-04-09T11:34:05.631Z,16.84
2023-04-09T11:38:09.782Z,16.75
2023-04-09T11:42:15.571Z,16.43
2023-04-09T11:46:20.659Z,15.94
2023-04-09T11:50:26.996Z,15.74
2023-04-09T11:54:33.797Z,15.67
2023-04-09T11:58:37.125Z,15.54
2023-04-09T12:02:43.526Z,15.46
2023-04-09T12:06:48.515Z,15.41
2023-04-09T12:10:53.391Z,15.32
2023-04-09T12:14:59.020Z,15.16
2023-04-09T12:19:02.854Z,15.24
2023-04-09T12:23:10.803Z,15.44
2023-04-09T12:27:13.372Z,15.76
2023-04-09T12:31:17.348Z,16.00
2023-04-09T12:35:20.384Z,16.05
2023-04-09T12:39:24.794Z,16.10
2023-04-09T12:43:28.085Z,16.28
2023-04-09T12:47:31.025Z,16.40
2023-04-09T12:51:34.413Z,16.66
2023-04-09T12:55:43.087Z,16.80
2023-04-09T12:59:46.130Z,16.77
2023-04-09T13:03:49.419Z,16.53
2023-04-09T13:07:52.855Z,16.80
2023-04-09T13:11:59.524Z,17.12
2023-04-09T13:16:02.552Z,17.28
2023-04-09T13:20:07.101Z,16.90
2023-04-09T13:24:10.077Z,16.60
2023-04-09T13:28:15.822Z,16.75
2023-04-09T13:32:21.221Z,16.97
2023-04-09T13:36:24.606Z,17.28
2023-04-09T13:40:27.744Z,17.50
2023-04-09T13:44:33.626Z,17.73
2023-04-09T13:48:36.580Z,17.89
2023-04-09T13:52:39.683Z,17.32
2023-04-09T13:56:43.004Z,17.27
2023-04-09T14:00:47.512Z,17.24
2023-04-09T14:04:52.806Z,16.98
2023-04-09T14:08:56.008Z,16.70
2023-04-09T14:12:58.850Z,16.35
2023-04-09T14:17:03.663Z,15.99
2023-04-09T14:21:09.852Z,15.62
2023-04-09T14:25:13.767Z,15.32
2023-04-09T14:29:17.438Z,15.21
2023-04-09T14:33:25.120Z,15.29
2023-04-09T14:37:28.476Z,15.37
2023-04-09T14:41:34.334Z,15.36
2023-04-09T14:45:37.356Z,15.33
2023-04-09T14:49:41.851Z,15.35
2023-04-09T14:53:47.184Z,15.36
2023-04-09T14:57:50.243Z,15.23
2023-04-09T15:01:53.947Z,14.99
2023-04-09T15:05:58.589Z,14.78
2023-04-09T15:10:04.953Z,14.62
2023-04-09T15:14:10.080Z,14.49
2023-04-09T15:18:12.824Z,14.40
2023-04-09T15:22:16.660Z,14.31
2023-04-09T15:26:19.691Z,14.21
2023-04-09T15:30:22.614Z,14.11
2023-04-09T15:34:26.380Z,14.00
2023-04-09T15:38:32.782Z,13.90
2023-04-09T15:42:38.457Z,13.79
2023-04-09T15:46:41.353Z,13.72
2023-04-09T15:50:46.636Z,13.66
2023-04-09T15:54:54.205Z,13.62
2023-04-09T15:58:57.760Z,13.70
2023-04-09T16:03:00.697Z,13.78
2023-04-09T16:07:04.746Z,13.85
2023-04-09T16:11:09.850Z,13.88
2023-04-09T16:15:14.418Z,13.84
2023-04-09T16:19:18.382Z,13.78
2023-04-09T16:23:24.160Z,13.65
2023-04-09T16:27:28.762Z,13.48
2023-04-09T16:31:34.711Z,13.36
2023-04-09T16:35:40.723Z,13.23
2023-04-09T16:39:45.425Z,13.10
2023-04-09T16:43:56.550Z,12.96
2023-04-09T16:47:59.662Z,12.83
2023-04-09T16:52:02.993Z,12.68
2023-04-09T16:56:08.618Z,12.54
2023-04-09T17:00:17.601Z,12.39
2023-04-09T17:04:20.474Z,12.21
2023-04-09T17:08:24.590Z,11.94
2023-04-09T17:12:28.131Z,11.63
2023-04-09T17:16:32.721Z,11.36
2023-04-09T17:20:38.688Z,11.20
2023-04-09T17:24:42.879Z,11.04
2023-04-09T17:28:46.893Z,10.93
2023-04-09T17:32:52.940Z,10.86
2023-04-09T17:37:01.064Z,10.80
2023-04-09T17:41:06.389Z,10.72
2023-04-09T17:45:12.005Z,10.62
2023-04-09T17:49:16.463Z,10.54
2023-04-09T17:53:19.816Z,10.46
2023-04-09T17:57:22.341Z,10.37
2023-04-09T18:01:25.741Z,10.29
2023-04-09T18:05:30.508Z,10.19
2023-04-09T18:09:35.562Z,10.10
2023-04-09T18:13:38.723Z,10.01
2023-04-09T18:17:44.826Z,9.95
2023-04-09T18:21:49.335Z,9.89
2023-04-09T18:25:52.479Z,9.83
2023-04-09T18:29:56.161Z,9.76
2023-04-09T18:33:59.201Z,9.72
2023-04-09T18:38:04.894Z,9.71
2023-04-09T18:42:10.258Z,9.66
2023-04-09T18:46:13.827Z,9.63
2023-04-09T18:50:18.014Z,9.62
2023-04-09T18:54:22.162Z,9.60
2023-04-09T18:58:27.236Z,9.57
2023-04-09T19:02:33.283Z,9.54
2023-04-09T19:06:38.001Z,9.50
2023-04-09T19:10:44.011Z,9.47
2023-04-09T19:14:49.722Z,9.46
2023-04-09T19:18:53.141Z,9.42
2023-04-09T19:22:59.542Z,9.42
2023-04-09T19:27:10.157Z,9.42
2023-04-09T19:31:16.868Z,9.39
2023-04-09T19:35:20.902Z,9.37
2023-04-09T19:39:23.747Z,9.35
2023-04-09T19:43:30.009Z,9.31
2023-04-09T19:47:35.679Z,9.28
2023-04-09T19:51:38.904Z,9.26
2023-04-09T19:55:44.827Z,9.24
2023-04-09T19:59:50.348Z,9.21
2023-04-09T20:03:54.056Z,9.21
2023-04-09T20:07:57.686Z,9.17
2023-04-09T20:12:04.515Z,9.15
2023-04-09T20:16:09.031Z,9.14
2023-04-09T20:20:13.394Z,9.19
2023-04-09T20:24:18.262Z,9.20
2023-04-09T20:28:21.307Z,9.19
2023-04-09T20:32:25.353Z,9.16
2023-04-09T20:36:28.603Z,9.13
2023-04-09T20:40:32.204Z,9.10
2023-04-09T20:44:35.323Z,9.08
2023-04-09T20:48:39.391Z,9.05
2023-04-09T20:52:43.484Z,9.06
2023-04-09T20:56:46.412Z,9.02
2023-04-09T21:00:49.390Z,8.94
2023-04-09T21:04:55.400Z,8.89
2023-04-09T21:08:59.776Z,8.79
2023-04-09T21:13:06.886Z,8.65
2023-04-09T21:17:09.961Z,8.50
2023-04-09T21:21:15.034Z,8.34
2023-04-09T21:25:20.600Z,8.20
2023-04-09T21:29:23.875Z,8.12
2023-04-09T21:33:28.548Z,8.06
2023-04-09T21:37:39.574Z,7.99
2023-04-09T21:41:42.525Z,7.92
2023-04-09T21:45:45.718Z,7.90
2023-04-09T21:49:50.392Z,7.90
2023-04-09T21:54:03.591Z,7.92
2023-04-09T21:58:07.318Z,7.94
2023-04-09T22:02:10.980Z,7.93
2023-04-09T22:06:14.626Z,7.90
2023-04-09T22:10:19.406Z,7.88
2023-04-09T22:14:26.529Z,7.82
2023-04-09T22:18:30.075Z,7.75
2023-04-09T22:22:33.267Z,7.66
2023-04-09T22:26:39.354Z,7.61
2023-04-09T22:30:42.807Z,7.52
2023-04-09T22:34:45.837Z,7.38
2023-04-09T22:38:51.965Z,7.25
2023-04-09T22:42:58.741Z,7.13
2023-04-09T22:47:01.841Z,6.92
2023-04-09T22:51:08.085Z,6.71
2023-04-09T22:55:11.566Z,6.56
2023-04-09T22:59:37.255Z,6.41
2023-04-09T23:03:42.625Z,6.24
2023-04-09T23:07:47.048Z,6.13
2023-04-09T23:11:50.639Z,6.04
2023-04-09T23:15:55.176Z,5.94
2023-04-09T23:20:00.124Z,5.85
2023-04-09T23:24:02.999Z,5.70
2023-04-09T23:28:06.296Z,5.64
2023-04-09T23:32:10.990Z,5.55
2023-04-09T23:36:16.478Z,5.49
2023-04-09T23:40:19.474Z,5.46
2023-04-09T23:44:26.551Z,5.33
2023-04-09T23:48:31.076Z,5.25
2023-04-09T23:52:39.491Z,5.17
2023-04-09T23:56:42.641Z,5.18
